createdAt,value
2023-10-31T00:00:19.039Z,99604.50
2023-10-31T00:00:51.593Z,99601.41
2023-10-31T00:01:23.435Z,99600.63
2023-10-31T00:01:56.401Z,99605.66
2023-10-31T00:02:27.976Z,99600.22
2023-10-31T00:02:59.551Z,99611.09
2023-10-31T00:03:32.261Z,99603.72
2023-10-31T00:04:03.860Z,99609.16
2023-10-31T00:04:35.464Z,99603.31
2023-10-31T00:05:07.464Z,99596.72
2023-10-31T00:05:39.064Z,99602.16
2023-10-31T00:06:10.684Z,99608.78
2023-10-31T00:06:42.619Z,99607.22
2023-10-31T00:07:14.055Z,99600.25
2023-10-31T00:07:45.582Z,99611.13
2023-10-31T00:08:17.035Z,99608.81
2023-10-31T00:08:48.560Z,99605.69
2023-10-31T00:09:20.028Z,99611.13
2023-10-31T00:09:51.465Z,99609.97
2023-10-31T00:10:22.952Z,99608.00
2023-10-31T00:10:54.489Z,99614.63
2023-10-31T00:11:26.003Z,99607.22
2023-10-31T00:11:57.510Z,99607.22
2023-10-31T00:12:28.935Z,99609.97
2023-10-31T00:13:00.365Z,99608.00
2023-10-31T00:13:31.800Z,99608.00
2023-10-31T00:14:03.735Z,99604.50
2023-10-31T00:14:35.269Z,99599.84
2023-10-31T00:15:06.918Z,99608.00
2023-10-31T00:15:38.567Z,99602.56
2023-10-31T00:16:10.163Z,99598.31
2023-10-31T00:16:41.748Z,99599.84
2023-10-31T00:17:13.312Z,99599.84
2023-10-31T00:17:44.844Z,99604.13
2023-10-31T00:18:16.415Z,99604.88
2023-10-31T00:18:47.831Z,99603.34
2023-10-31T00:19:19.777Z,99603.75
2023-10-31T00:19:51.280Z,99601.03
2023-10-31T00:20:22.807Z,99601.03
2023-10-31T00:20:54.312Z,99609.19
2023-10-31T00:21:25.734Z,99609.19
2023-10-31T00:21:57.298Z,99614.25
2023-10-31T00:22:29.071Z,99615.03
2023-10-31T00:23:00.635Z,99609.56
2023-10-31T00:23:32.150Z,99611.91
2023-10-31T00:24:04.276Z,99613.84
2023-10-31T00:24:54.261Z,99611.91
2023-10-31T00:25:25.720Z,99613.44
2023-10-31T00:25:57.153Z,99610.72
2023-10-31T00:26:28.643Z,99609.56
2023-10-31T00:27:00.154Z,99608.78
2023-10-31T00:27:31.808Z,99612.28
2023-10-31T00:28:03.408Z,99604.88
2023-10-31T00:28:34.858Z,99615.78
2023-10-31T00:29:06.378Z,99616.56
2023-10-31T00:29:37.882Z,99619.28
2023-10-31T00:30:09.673Z,99624.31
2023-10-31T00:30:41.069Z,99620.03
2023-10-31T00:31:12.711Z,99632.47
2023-10-31T00:31:44.280Z,99623.53
2023-10-31T00:32:15.745Z,99628.59
2023-10-31T00:32:47.271Z,99626.63
2023-10-31T00:33:18.805Z,99626.63
2023-10-31T00:33:50.311Z,99625.09
2023-10-31T00:34:21.919Z,99622.78
2023-10-31T00:34:53.395Z,99629.00
2023-10-31T00:35:24.940Z,99619.28
2023-10-31T00:35:56.872Z,99630.16
2023-10-31T00:36:28.421Z,99622.00
2023-10-31T00:36:59.882Z,99626.25
2023-10-31T00:37:31.537Z,99619.28
2023-10-31T00:38:21.664Z,99620.81
2023-10-31T00:38:53.110Z,99611.09
2023-10-31T00:39:24.714Z,99620.81
2023-10-31T00:39:56.205Z,99621.22
2023-10-31T00:40:27.718Z,99614.22
2023-10-31T00:40:59.171Z,99622.00
2023-10-31T00:41:31.309Z,99612.28
2023-10-31T00:42:02.800Z,99612.66
2023-10-31T00:42:34.313Z,99619.28
2023-10-31T00:43:06.203Z,99616.56
2023-10-31T00:43:37.758Z,99616.94
2023-10-31T00:44:09.278Z,99622.00
2023-10-31T00:44:40.783Z,99616.94
2023-10-31T00:45:12.256Z,99620.44
2023-10-31T00:45:43.754Z,99613.44
2023-10-31T00:46:15.272Z,99615.00
2023-10-31T00:46:46.696Z,99620.44
2023-10-31T00:47:18.991Z,99615.78
2023-10-31T00:47:50.602Z,99618.91
2023-10-31T00:48:22.314Z,99611.09
2023-10-31T00:48:53.787Z,99614.59
2023-10-31T00:49:25.295Z,99619.66
2023-10-31T00:49:57.071Z,99624.31
2023-10-31T00:50:29.992Z,99616.56
2023-10-31T00:51:01.498Z,99619.66
2023-10-31T00:51:33.812Z,99616.94
2023-10-31T00:52:05.635Z,99619.66
2023-10-31T00:52:37.096Z,99621.22
2023-10-31T00:53:09.130Z,99619.66
2023-10-31T00:53:40.581Z,99622.38
2023-10-31T00:54:12.023Z,99630.94
2023-10-31T00:54:43.527Z,99626.28
2023-10-31T00:55:15.004Z,99629.41
2023-10-31T00:55:46.587Z,99624.72
2023-10-31T00:56:18.128Z,99633.66
2023-10-31T00:56:49.544Z,99635.22
2023-10-31T00:57:21.007Z,99641.84
2023-10-31T00:57:53.564Z,99639.09
2023-10-31T00:58:25.027Z,99636.38
2023-10-31T00:58:56.563Z,99635.22
2023-10-31T00:59:28.192Z,99637.94
2023-10-31T00:59:59.611Z,99639.88
2023-10-31T01:00:31.215Z,99639.50
2023-10-31T01:01:02.823Z,99643.00
2023-10-31T01:01:34.552Z,99636.78
2023-10-31T01:02:06.269Z,99638.31
2023-10-31T01:02:37.815Z,99641.03
2023-10-31T01:03:09.404Z,99649.97
2023-10-31T01:03:41.126Z,99640.66
2023-10-31T01:04:12.620Z,99645.31
2023-10-31T01:04:44.160Z,99643.75
2023-10-31T01:05:15.780Z,99646.47
2023-10-31T01:05:47.389Z,99648.81
2023-10-31T01:06:18.851Z,99651.53
2023-10-31T01:06:50.393Z,99644.53
2023-10-31T01:07:21.836Z,99653.47
2023-10-31T01:07:53.307Z,99639.09
2023-10-31T01:08:24.820Z,99648.03
2023-10-31T01:08:56.319Z,99649.22
2023-10-31T01:09:27.775Z,99647.25
2023-10-31T01:09:59.232Z,99647.25
2023-10-31T01:10:30.795Z,99647.25
2023-10-31T01:11:02.277Z,99644.53
2023-10-31T01:11:33.760Z,99649.59
2023-10-31T01:12:06.189Z,99646.88
2023-10-31T01:12:56.450Z,99649.97
2023-10-31T01:13:27.969Z,99653.06
2023-10-31T01:13:59.580Z,99651.13
2023-10-31T01:14:31.075Z,99655.41
2023-10-31T01:15:02.882Z,99652.69
2023-10-31T01:15:34.350Z,99656.19
2023-10-31T01:16:06.176Z,99656.56
2023-10-31T01:16:37.648Z,99655.78
2023-10-31T01:17:09.180Z,99662.78
2023-10-31T01:17:40.749Z,99655.38
2023-10-31T01:18:12.276Z,99662.38
2023-10-31T01:18:43.768Z,99669.00
2023-10-31T01:19:15.320Z,99662.78
2023-10-31T01:19:46.833Z,99655.38
2023-10-31T01:20:18.383Z,99664.72
2023-10-31T01:20:50.003Z,99653.06
2023-10-31T01:21:21.569Z,99654.22
2023-10-31T01:21:53.090Z,99658.50
2023-10-31T01:22:24.572Z,99656.56
2023-10-31T01:22:56.101Z,99660.84
2023-10-31T01:23:27.726Z,99658.88
2023-10-31T01:23:59.964Z,99660.44
2023-10-31T01:24:31.449Z,99660.44
2023-10-31T01:25:51.929Z,99663.94
2023-10-31T01:26:23.430Z,99658.50
2023-10-31T01:26:55.132Z,99663.53
2023-10-31T01:27:26.569Z,99664.72
2023-10-31T01:27:58.011Z,99667.44
2023-10-31T01:28:29.463Z,99666.66
2023-10-31T01:29:00.894Z,99667.44
2023-10-31T01:29:32.599Z,99672.88
2023-10-31T01:30:04.588Z,99675.59
2023-10-31T01:30:36.112Z,99674.41
2023-10-31T01:31:08.084Z,99674.41
2023-10-31T01:31:52.748Z,99674.03
2023-10-31T01:32:31.017Z,99672.47
2023-10-31T01:33:02.634Z,99668.97
2023-10-31T01:33:34.598Z,99668.97
2023-10-31T01:34:06.209Z,99678.69
2023-10-31T01:34:37.770Z,99674.41
2023-10-31T01:35:09.404Z,99677.91
2023-10-31T01:35:40.965Z,99677.16
2023-10-31T01:36:13.593Z,99677.91
2023-10-31T01:36:45.141Z,99682.59
2023-10-31T01:37:16.734Z,99672.47
2023-10-31T01:37:48.279Z,99675.19
2023-10-31T01:38:19.791Z,99684.91
2023-10-31T01:38:51.223Z,99684.91
2023-10-31T01:39:22.679Z,99682.94
2023-10-31T01:39:54.119Z,99682.94
2023-10-31T01:40:25.528Z,99679.47
2023-10-31T01:40:57.089Z,99687.22
2023-10-31T01:41:28.567Z,99688.38
2023-10-31T01:41:59.973Z,99682.94
2023-10-31T01:42:31.434Z,99689.16
2023-10-31T01:43:02.940Z,99682.53
2023-10-31T01:43:36.935Z,99686.03
2023-10-31T01:44:08.427Z,99685.66
2023-10-31T01:44:39.853Z,99686.03
2023-10-31T01:45:12.364Z,99686.03
2023-10-31T01:45:43.814Z,99686.03
2023-10-31T01:46:15.270Z,99691.88
2023-10-31T01:46:46.737Z,99691.09
2023-10-31T01:47:18.720Z,99680.22
2023-10-31T01:47:53.180Z,99689.16
2023-10-31T01:48:26.673Z,99679.03
2023-10-31T01:48:58.120Z,99688.38
2023-10-31T01:49:29.585Z,99682.94
2023-10-31T01:50:01.366Z,99685.25
2023-10-31T01:50:32.901Z,99681.75
2023-10-31T01:51:05.495Z,99679.81
2023-10-31T01:51:37.065Z,99682.16
2023-10-31T01:52:08.517Z,99677.09
2023-10-31T01:52:40.188Z,99680.19
2023-10-31T01:53:11.774Z,99684.88
2023-10-31T01:53:43.523Z,99684.88
2023-10-31T01:54:15.465Z,99680.56
2023-10-31T01:54:46.963Z,99675.91
2023-10-31T01:55:19.452Z,99677.84
2023-10-31T01:55:52.097Z,99681.34
2023-10-31T01:56:25.463Z,99681.72
2023-10-31T01:56:59.122Z,99685.22
2023-10-31T01:57:31.020Z,99684.06
2023-10-31T01:58:03.420Z,99681.34
2023-10-31T01:58:38.555Z,99684.44
2023-10-31T01:59:10.711Z,99685.59
2023-10-31T01:59:42.219Z,99685.59
2023-10-31T02:00:15.351Z,99681.31
2023-10-31T02:00:47.328Z,99685.22
2023-10-31T02:01:19.142Z,99685.97
2023-10-31T02:01:50.887Z,99682.50
2023-10-31T02:02:24.609Z,99681.72
2023-10-31T02:02:56.781Z,99683.25
2023-10-31T02:03:29.337Z,99683.66
2023-10-31T02:04:03.429Z,99677.44
2023-10-31T02:04:35.053Z,99686.38
2023-10-31T02:05:07.319Z,99686.38
2023-10-31T02:05:38.883Z,99679.75
2023-10-31T02:06:10.308Z,99683.66
2023-10-31T02:06:41.782Z,99685.22
2023-10-31T02:07:13.252Z,99679.75
2023-10-31T02:08:04.618Z,99673.16
2023-10-31T02:08:36.104Z,99679.75
2023-10-31T02:09:08.119Z,99683.25
2023-10-31T02:09:39.578Z,99677.03
2023-10-31T02:10:10.996Z,99679.75
2023-10-31T02:10:42.509Z,99675.88
2023-10-31T02:11:14.093Z,99676.66
2023-10-31T02:11:45.551Z,99674.69
2023-10-31T02:12:33.756Z,99676.25
2023-10-31T02:13:16.121Z,99685.97
2023-10-31T02:13:47.587Z,99677.81
2023-10-31T02:15:09.612Z,99676.63
2023-10-31T02:15:41.446Z,99680.91
2023-10-31T02:16:12.974Z,99680.13
2023-10-31T02:16:44.635Z,99675.84
2023-10-31T02:17:16.164Z,99680.91
2023-10-31T02:18:55.427Z,99675.81
2023-10-31T02:19:27.543Z,99678.19
2023-10-31T02:19:59.005Z,99683.63
2023-10-31T02:20:30.502Z,99683.63
2023-10-31T02:21:01.991Z,99682.84
2023-10-31T02:21:33.814Z,99683.63
2023-10-31T02:22:05.293Z,99683.19
2023-10-31T02:22:36.873Z,99683.19
2023-10-31T02:23:08.440Z,99679.69
2023-10-31T02:23:39.946Z,99686.69
2023-10-31T02:24:11.464Z,99681.25
2023-10-31T02:24:42.924Z,99677.34
2023-10-31T02:25:19.149Z,99680.84
2023-10-31T02:25:50.777Z,99687.06
2023-10-31T02:26:22.269Z,99690.97
2023-10-31T02:26:53.911Z,99683.56
2023-10-31T02:27:25.445Z,99676.19
2023-10-31T02:27:56.989Z,99674.22
2023-10-31T02:28:29.147Z,99677.72
2023-10-31T02:29:01.658Z,99682.41
2023-10-31T02:29:51.919Z,99682.41
2023-10-31T02:30:24.688Z,99682.81
2023-10-31T02:30:56.211Z,99679.31
2023-10-31T02:31:28.045Z,99683.97
2023-10-31T02:31:59.522Z,99688.63
2023-10-31T02:32:31.074Z,99681.25
2023-10-31T02:33:03.429Z,99680.06
2023-10-31T02:33:34.966Z,99684.75
2023-10-31T02:34:06.744Z,99685.53
2023-10-31T02:35:27.267Z,99680.06
2023-10-31T02:35:58.689Z,99682.81
2023-10-31T02:36:30.171Z,99684.75
2023-10-31T02:37:01.638Z,99685.53
2023-10-31T02:37:33.088Z,99675.81
2023-10-31T02:38:04.552Z,99677.34
2023-10-31T02:38:36.031Z,99678.53
2023-10-31T02:39:07.477Z,99678.53
2023-10-31T02:39:39.018Z,99673.84
2023-10-31T02:40:11.058Z,99687.06
2023-10-31T02:40:42.600Z,99684.75
2023-10-31T02:41:14.345Z,99681.69
2023-10-31T02:41:45.819Z,99681.28
2023-10-31T02:42:17.236Z,99689.84
2023-10-31T02:42:49.105Z,99684.03
2023-10-31T02:43:20.758Z,99680.91
2023-10-31T02:43:52.254Z,99686.38
2023-10-31T02:44:23.733Z,99686.38
2023-10-31T02:44:55.406Z,99685.59
2023-10-31T02:45:26.890Z,99690.63
2023-10-31T02:45:58.347Z,99692.59
2023-10-31T02:46:48.471Z,99686.75
2023-10-31T02:47:20.381Z,99694.13
2023-10-31T02:47:51.924Z,99696.09
2023-10-31T02:48:24.908Z,99698.03
2023-10-31T02:48:56.366Z,99698.03
2023-10-31T02:49:27.782Z,99693.34
2023-10-31T02:49:59.234Z,99694.53
2023-10-31T02:50:30.769Z,99699.19
2023-10-31T02:51:02.239Z,99699.97
2023-10-31T02:51:33.707Z,99703.47
2023-10-31T02:52:05.360Z,99699.97
2023-10-31T02:52:37.337Z,99698.81
2023-10-31T02:53:08.861Z,99700.75
2023-10-31T02:53:40.370Z,99698.81
2023-10-31T02:54:11.877Z,99699.56
2023-10-31T02:54:43.378Z,99692.59
2023-10-31T02:55:14.996Z,99705.03
2023-10-31T02:55:46.505Z,99700.75
2023-10-31T02:56:18.031Z,99697.25
2023-10-31T02:56:49.494Z,99698.03
2023-10-31T02:57:20.948Z,99706.19
2023-10-31T02:57:52.427Z,99703.47
2023-10-31T02:58:23.871Z,99709.69
2023-10-31T02:58:55.493Z,99706.97
2023-10-31T02:59:27.171Z,99703.47
2023-10-31T02:59:58.630Z,99701.16
2023-10-31T03:00:30.055Z,99699.19
2023-10-31T03:01:01.588Z,99700.38
2023-10-31T03:01:33.456Z,99705.03
2023-10-31T03:02:05.035Z,99705.03
2023-10-31T03:02:36.761Z,99704.66
2023-10-31T03:03:08.386Z,99706.59
2023-10-31T03:03:39.842Z,99705.84
2023-10-31T03:04:11.370Z,99706.22
2023-10-31T03:04:42.887Z,99705.84
2023-10-31T03:05:14.343Z,99703.88
2023-10-31T03:05:45.778Z,99703.50
2023-10-31T03:06:17.242Z,99707.41
2023-10-31T03:06:48.775Z,99705.84
2023-10-31T03:07:20.240Z,99703.13
2023-10-31T03:07:51.766Z,99697.31
2023-10-31T03:08:23.288Z,99708.97
2023-10-31T03:08:54.776Z,99702.75
2023-10-31T03:09:26.307Z,99706.66
2023-10-31T03:09:57.794Z,99707.41
2023-10-31T03:10:29.260Z,99703.16
2023-10-31T03:11:00.672Z,99712.09
2023-10-31T03:11:33.510Z,99715.19
2023-10-31T03:12:05.190Z,99707.41
2023-10-31T03:12:36.696Z,99710.13
2023-10-31T03:13:08.226Z,99710.13
2023-10-31T03:13:39.710Z,99712.84
2023-10-31T03:14:11.230Z,99716.75
2023-10-31T03:14:43.649Z,99721.81
2023-10-31T03:15:15.121Z,99718.31
2023-10-31T03:15:47.849Z,99719.09
2023-10-31T03:16:19.418Z,99710.53
2023-10-31T03:16:50.996Z,99715.19
2023-10-31T03:17:23.420Z,99719.88
2023-10-31T03:18:15.725Z,99720.66
2023-10-31T03:18:47.877Z,99721.41
2023-10-31T03:19:19.530Z,99722.59
2023-10-31T03:19:51.034Z,99727.63
2023-10-31T03:20:22.500Z,99722.97
2023-10-31T03:20:53.913Z,99723.38
2023-10-31T03:21:25.631Z,99726.09
2023-10-31T03:21:57.065Z,99726.88
2023-10-31T03:22:28.519Z,99731.53
2023-10-31T03:23:00.033Z,99723.38
2023-10-31T03:23:31.524Z,99727.63
2023-10-31T03:24:03.023Z,99731.53
2023-10-31T03:24:34.460Z,99731.53
2023-10-31T03:25:06.621Z,99734.66
2023-10-31T03:25:38.886Z,99731.94
2023-10-31T03:26:10.437Z,99731.19
2023-10-31T03:27:00.292Z,99740.88
2023-10-31T03:27:31.726Z,99731.94
2023-10-31T03:28:03.342Z,99734.66
2023-10-31T03:28:34.833Z,99738.16
2023-10-31T03:29:06.301Z,99741.66
2023-10-31T03:29:37.759Z,99740.09
2023-10-31T03:30:09.613Z,99740.88
2023-10-31T03:30:41.135Z,99744.38
2023-10-31T03:31:13.768Z,99744.38
2023-10-31T03:31:45.233Z,99744.38
2023-10-31T03:32:17.945Z,99742.41
2023-10-31T03:32:50.468Z,99748.63
2023-10-31T03:33:21.977Z,99753.31
2023-10-31T03:33:54.265Z,99755.25
2023-10-31T03:34:25.730Z,99746.31
2023-10-31T03:34:57.306Z,99751.75
2023-10-31T03:35:28.760Z,99754.47
2023-10-31T03:36:00.215Z,99760.69
2023-10-31T03:36:31.861Z,99759.91
2023-10-31T03:37:03.329Z,99751.75
2023-10-31T03:37:34.790Z,99754.47
2023-10-31T03:38:06.271Z,99759.91
2023-10-31T03:38:38.287Z,99756.44
2023-10-31T03:39:09.852Z,99758.75
2023-10-31T03:39:41.342Z,99757.97
2023-10-31T03:40:12.979Z,99761.47
2023-10-31T03:40:44.463Z,99766.91
2023-10-31T03:41:16.018Z,99763.03
2023-10-31T03:41:47.888Z,99767.69
2023-10-31T03:42:19.441Z,99766.53
2023-10-31T03:42:50.906Z,99769.25
2023-10-31T03:43:22.371Z,99767.28
2023-10-31T03:43:53.916Z,99772.75
2023-10-31T03:44:25.461Z,99769.25
2023-10-31T03:44:56.937Z,99774.69
2023-10-31T03:45:28.349Z,99778.97
2023-10-31T03:46:00.075Z,99779.75
2023-10-31T03:46:31.629Z,99764.56
2023-10-31T03:47:03.444Z,99776.25
2023-10-31T03:47:35.011Z,99771.56
2023-10-31T03:48:06.498Z,99780.50
2023-10-31T03:48:37.959Z,99783.63
2023-10-31T03:49:09.708Z,99778.56
2023-10-31T03:49:41.681Z,99780.91
2023-10-31T03:50:13.178Z,99776.63
2023-10-31T03:50:44.758Z,99786.34
2023-10-31T03:51:16.268Z,99778.19
2023-10-31T03:51:47.720Z,99781.31
2023-10-31T03:52:20.869Z,99786.34
2023-10-31T03:52:52.394Z,99787.91
2023-10-31T03:53:23.864Z,99792.56
2023-10-31T03:53:55.269Z,99791.78
2023-10-31T03:54:26.729Z,99794.53
2023-10-31T03:54:58.238Z,99792.97
2023-10-31T03:55:31.211Z,99794.53
2023-10-31T03:56:02.848Z,99792.97
2023-10-31T03:56:44.740Z,99791.78
2023-10-31T03:57:16.242Z,99791.78
2023-10-31T03:57:47.908Z,99798.41
2023-10-31T03:58:19.459Z,99801.91
2023-10-31T03:58:51.008Z,99798.03
2023-10-31T03:59:22.439Z,99792.19
2023-10-31T03:59:53.905Z,99802.31
2023-10-31T04:00:25.556Z,99803.06
2023-10-31T04:00:57.077Z,99796.09
2023-10-31T04:01:28.503Z,99794.91
2023-10-31T04:01:59.973Z,99801.13
2023-10-31T04:02:31.580Z,99799.56
2023-10-31T04:03:03.177Z,99803.06
2023-10-31T04:03:34.831Z,99802.69
2023-10-31T04:04:06.513Z,99804.63
2023-10-31T04:04:37.985Z,99803.06
2023-10-31T04:05:09.666Z,99807.75
2023-10-31T04:05:41.127Z,99798.81
2023-10-31T04:06:12.639Z,99809.69
2023-10-31T04:07:02.564Z,99810.06
2023-10-31T04:07:34.008Z,99815.53
2023-10-31T04:08:05.579Z,99808.53
2023-10-31T04:08:37.088Z,99808.53
2023-10-31T04:09:08.631Z,99809.28
2023-10-31T04:09:40.470Z,99808.13
2023-10-31T04:10:11.932Z,99806.56
2023-10-31T04:10:43.384Z,99807.34
2023-10-31T04:11:14.897Z,99810.84
2023-10-31T04:11:46.418Z,99805.41
2023-10-31T04:12:18.102Z,99808.13
2023-10-31T04:12:49.651Z,99803.84
2023-10-31T04:13:21.425Z,99808.53
2023-10-31T04:13:52.877Z,99803.47
2023-10-31T04:14:24.372Z,99813.59
2023-10-31T04:14:55.848Z,99808.56
2023-10-31T04:15:27.370Z,99814.34
2023-10-31T04:16:47.628Z,99812.41
2023-10-31T04:17:19.203Z,99819.03
2023-10-31T04:17:50.705Z,99814.78
2023-10-31T04:18:22.214Z,99819.44
2023-10-31T04:18:53.628Z,99811.28
2023-10-31T04:19:25.128Z,99813.22
2023-10-31T04:19:56.584Z,99814.41
2023-10-31T04:20:28.077Z,99820.63
2023-10-31T04:20:59.516Z,99819.84
2023-10-31T04:21:30.920Z,99826.84
2023-10-31T04:22:02.355Z,99820.22
2023-10-31T04:22:33.887Z,99823.72
2023-10-31T04:23:06.598Z,99825.66
2023-10-31T04:23:40.131Z,99815.56
2023-10-31T04:24:11.876Z,99823.72
2023-10-31T04:24:44.336Z,99817.50
2023-10-31T04:25:15.980Z,99827.19
2023-10-31T04:26:06.018Z,99820.22
2023-10-31T04:26:37.568Z,99820.56
2023-10-31T04:27:08.977Z,99826.03
2023-10-31T04:27:40.474Z,99828.75
2023-10-31T04:28:11.973Z,99826.03
2023-10-31T04:28:43.526Z,99826.03
2023-10-31T04:29:15.020Z,99829.91
2023-10-31T04:29:46.993Z,99827.97
2023-10-31T04:30:18.526Z,99827.97
2023-10-31T04:30:50.056Z,99828.75
2023-10-31T04:31:31.169Z,99830.69
2023-10-31T04:32:10.441Z,99832.63
2023-10-31T04:32:42.291Z,99829.91
2023-10-31T04:33:13.986Z,99833.06
2023-10-31T04:33:45.468Z,99835.00
2023-10-31T04:34:16.949Z,99828.00
2023-10-31T04:34:48.535Z,99825.28
2023-10-31T04:35:19.991Z,99834.22
2023-10-31T04:35:51.468Z,99830.34
2023-10-31T04:36:23.011Z,99831.09
2023-10-31T04:36:54.748Z,99835.78
2023-10-31T04:37:26.213Z,99835.78
2023-10-31T04:37:57.961Z,99838.50
2023-10-31T04:38:29.415Z,99837.72
2023-10-31T04:39:00.914Z,99841.22
2023-10-31T04:39:32.443Z,99839.28
2023-10-31T04:40:04.195Z,99840.81
2023-10-31T04:40:35.647Z,99838.06
2023-10-31T04:41:09.194Z,99838.06
2023-10-31T04:41:40.660Z,99834.19
2023-10-31T04:42:12.160Z,99842.34
2023-10-31T04:42:44.476Z,99838.84
2023-10-31T04:43:15.960Z,99838.06
2023-10-31T04:43:47.516Z,99834.97
2023-10-31T04:44:19.048Z,99834.97
2023-10-31T04:44:50.600Z,99841.19
2023-10-31T04:45:22.131Z,99837.69
2023-10-31T04:45:53.612Z,99833.03
2023-10-31T04:46:30.892Z,99832.63
2023-10-31T04:47:02.543Z,99839.63
2023-10-31T04:47:34.190Z,99834.97
2023-10-31T04:48:06.191Z,99841.19
2023-10-31T04:48:37.886Z,99833.41
2023-10-31T04:49:09.796Z,99837.69
2023-10-31T04:49:41.261Z,99846.63
2023-10-31T04:50:13.141Z,99837.69
2023-10-31T04:50:44.694Z,99841.94
2023-10-31T04:51:16.244Z,99840.78
2023-10-31T04:51:47.678Z,99840.78
2023-10-31T04:52:20.788Z,99841.94
2023-10-31T04:52:52.301Z,99847.00
2023-10-31T04:53:23.776Z,99836.91
2023-10-31T04:53:55.227Z,99848.94
2023-10-31T04:54:26.676Z,99839.22
2023-10-31T04:54:58.128Z,99840.00
2023-10-31T04:55:29.548Z,99844.69
2023-10-31T04:56:01.123Z,99846.22
2023-10-31T04:56:32.702Z,99844.69
2023-10-31T04:57:05.077Z,99840.78
2023-10-31T04:57:36.648Z,99844.28
2023-10-31T04:58:08.075Z,99839.63
2023-10-31T04:58:39.551Z,99838.06
2023-10-31T04:59:11.038Z,99839.63
2023-10-31T04:59:42.523Z,99838.84
2023-10-31T05:00:14.354Z,99845.06
2023-10-31T05:00:45.865Z,99845.84
2023-10-31T05:01:17.548Z,99843.13
2023-10-31T05:01:51.191Z,99839.63
2023-10-31T05:02:24.082Z,99843.13
2023-10-31T05:02:57.482Z,99841.94
2023-10-31T05:04:18.231Z,99852.84
2023-10-31T05:04:52.073Z,99842.34
2023-10-31T05:05:23.708Z,99845.84
2023-10-31T05:05:55.336Z,99848.94
2023-10-31T05:06:28.122Z,99844.28
2023-10-31T05:06:59.728Z,99845.06
2023-10-31T05:07:31.255Z,99843.50
2023-10-31T05:08:02.696Z,99848.19
2023-10-31T05:08:34.191Z,99850.91
2023-10-31T05:09:06.028Z,99842.72
2023-10-31T05:09:38.102Z,99843.91
2023-10-31T05:10:09.836Z,99845.44
2023-10-31T05:10:41.577Z,99852.84
2023-10-31T05:11:13.157Z,99847.41
2023-10-31T05:11:44.624Z,99851.66
2023-10-31T05:12:16.079Z,99854.00
2023-10-31T05:12:47.534Z,99852.47
2023-10-31T05:13:18.941Z,99847.78
2023-10-31T05:13:51.594Z,99851.28
2023-10-31T05:14:23.097Z,99852.06
2023-10-31T05:14:54.568Z,99855.97
2023-10-31T05:15:26.029Z,99855.19
2023-10-31T05:15:57.549Z,99856.75
2023-10-31T05:16:29.048Z,99852.47
2023-10-31T05:17:19.048Z,99865.28
2023-10-31T05:18:09.212Z,99860.63
2023-10-31T05:18:40.662Z,99864.13
2023-10-31T05:19:12.158Z,99863.78
2023-10-31T05:19:43.653Z,99865.28
2023-10-31T05:20:15.180Z,99864.13
2023-10-31T05:20:46.790Z,99866.84
2023-10-31T05:21:25.013Z,99871.53
2023-10-31T05:21:56.583Z,99864.91
2023-10-31T05:22:28.049Z,99864.13
2023-10-31T05:22:59.554Z,99870.75
2023-10-31T05:23:31.061Z,99862.56
2023-10-31T05:24:03.039Z,99868.03
2023-10-31T05:24:34.487Z,99867.28
2023-10-31T05:25:06.499Z,99863.78
2023-10-31T05:25:38.723Z,99871.16
2023-10-31T05:26:10.219Z,99873.09
2023-10-31T05:26:43.902Z,99869.59
2023-10-31T05:27:15.344Z,99875.06
2023-10-31T05:27:46.966Z,99868.84
2023-10-31T05:28:18.423Z,99866.88
2023-10-31T05:28:49.874Z,99864.16
2023-10-31T05:29:21.437Z,99877.78
2023-10-31T05:29:52.935Z,99871.56
2023-10-31T05:30:24.432Z,99869.59
2023-10-31T05:30:55.957Z,99870.00
2023-10-31T05:31:27.907Z,99873.09
2023-10-31T05:31:59.484Z,99875.44
2023-10-31T05:32:30.987Z,99880.09
2023-10-31T05:33:03.010Z,99876.59
2023-10-31T05:34:23.363Z,99871.16
2023-10-31T05:34:56.250Z,99876.63
2023-10-31T05:35:28.793Z,99880.50
2023-10-31T05:36:00.669Z,99877.00
2023-10-31T05:36:32.086Z,99874.28
2023-10-31T05:37:03.744Z,99881.66
2023-10-31T05:37:35.154Z,99883.63
2023-10-31T05:38:06.631Z,99880.91
2023-10-31T05:38:56.583Z,99884.38
2023-10-31T05:39:28.054Z,99890.63
2023-10-31T05:39:59.557Z,99887.88
2023-10-31T05:40:33.366Z,99890.63
2023-10-31T05:41:09.294Z,99886.34
2023-10-31T05:41:40.752Z,99882.06
2023-10-31T05:42:12.326Z,99893.34
2023-10-31T05:42:43.821Z,99887.13
2023-10-31T05:43:15.264Z,99891.00
2023-10-31T05:43:46.795Z,99887.91
2023-10-31T05:44:18.491Z,99893.72
2023-10-31T05:44:50.094Z,99897.22
2023-10-31T05:45:21.544Z,99899.56
2023-10-31T05:45:53.071Z,99894.50
2023-10-31T05:46:24.606Z,99893.34
2023-10-31T05:46:56.029Z,99901.88
2023-10-31T05:47:28.851Z,99899.56
2023-10-31T05:48:18.731Z,99897.22
2023-10-31T05:48:50.358Z,99899.16
2023-10-31T05:49:22.097Z,99897.22
2023-10-31T05:49:53.608Z,99901.13
2023-10-31T05:50:25.149Z,99898.38
2023-10-31T05:50:56.621Z,99902.66
2023-10-31T05:51:30.524Z,99900.72
2023-10-31T05:52:02.137Z,99899.94
2023-10-31T05:52:33.560Z,99900.72
2023-10-31T05:53:23.661Z,99898.78
2023-10-31T05:53:55.146Z,99900.34
2023-10-31T05:54:27.170Z,99902.66
2023-10-31T05:54:58.851Z,99912.38
2023-10-31T05:55:30.259Z,99903.44
2023-10-31T05:56:01.838Z,99904.22
2023-10-31T05:56:33.431Z,99904.22
2023-10-31T05:57:05.091Z,99898.78
2023-10-31T05:57:36.510Z,99903.84
2023-10-31T05:58:07.942Z,99905.00
2023-10-31T05:58:39.541Z,99903.06
2023-10-31T05:59:11.171Z,99902.28
2023-10-31T05:59:42.597Z,99904.22
2023-10-31T06:00:14.524Z,99909.66
2023-10-31T06:00:45.995Z,99903.44
2023-10-31T06:01:36.267Z,99903.44
2023-10-31T06:02:07.768Z,99906.56
2023-10-31T06:02:39.389Z,99907.75
2023-10-31T06:03:11.049Z,99910.47
2023-10-31T06:03:44.528Z,99907.75
2023-10-31T06:04:16.402Z,99901.53
2023-10-31T06:04:47.882Z,99913.19
2023-10-31T06:05:19.457Z,99906.19
2023-10-31T06:05:50.978Z,99911.63
2023-10-31T06:06:22.394Z,99906.19
2023-10-31T06:06:54.252Z,99905.81
2023-10-31T06:07:25.862Z,99905.81
2023-10-31T06:07:57.341Z,99914.34
2023-10-31T06:08:29.994Z,99916.69
2023-10-31T06:09:01.466Z,99915.91
2023-10-31T06:09:34.566Z,99908.91
2023-10-31T06:10:06.723Z,99915.53
2023-10-31T06:10:38.249Z,99910.09
2023-10-31T06:11:13.306Z,99910.88
2023-10-31T06:11:45.663Z,99913.97
2023-10-31T06:12:35.481Z,99916.69
2023-10-31T06:13:07.025Z,99917.84
2023-10-31T06:13:38.432Z,99922.13
2023-10-31T06:14:10.328Z,99919.81
2023-10-31T06:14:41.849Z,99914.34
2023-10-31T06:15:13.343Z,99917.09
2023-10-31T06:15:45.533Z,99914.34
2023-10-31T06:16:17.179Z,99921.75
2023-10-31T06:16:48.709Z,99916.31
2023-10-31T06:17:20.175Z,99921.75
2023-10-31T06:17:51.657Z,99922.91
2023-10-31T06:18:23.143Z,99925.63
2023-10-31T06:18:54.565Z,99922.91
2023-10-31T06:19:26.046Z,99927.19
2023-10-31T06:19:57.532Z,99922.91
2023-10-31T06:20:28.935Z,99924.47
2023-10-31T06:21:00.746Z,99927.97
2023-10-31T06:21:32.274Z,99920.56
2023-10-31T06:22:04.171Z,99934.19
2023-10-31T06:22:35.632Z,99934.19
2023-10-31T06:23:07.113Z,99927.56
2023-10-31T06:23:39.388Z,99924.06
2023-10-31T06:24:11.146Z,99922.13
2023-10-31T06:24:42.604Z,99919.41
2023-10-31T06:25:14.126Z,99921.75